sensor_id;sensor_type;location;lat;lon;timestamp;P1;durP1;ratioP1;P2;durP2;ratioP2
69856;SDS011;57147;53.582;10.112;2022-08-01T00:03:59;15.43;;;13.65;;
69856;SDS011;57147;53.582;10.112;2022-08-01T00:09:02;14.40;;;11.93;;
69856;SDS011;57147;53.582;10.112;2022-08-01T00:14:03;13.07;;;10.77;;
69856;SDS011;57147;53.582;10.112;2022-08-01T00:19:04;11.18;;;9.73;;
69856;SDS011;57147;53.582;10.112;2022-08-01T00:24:07;11.80;;;10.43;;
69856;SDS011;57147;53.582;10.112;2022-08-01T00:29:08;13.98;;;12.55;;
69856;SDS011;57147;53.582;10.112;2022-08-01T00:34:08;15.02;;;11.85;;
69856;SDS011;57147;53.582;10.112;2022-08-01T00:39:12;14.10;;;11.02;;
69856;SDS011;57147;53.582;10.112;2022-08-01T00:44:12;14.32;;;11.52;;
69856;SDS011;57147;53.582;10.112;2022-08-01T00:49:13;15.32;;;12.95;;
69856;SDS011;57147;53.582;10.112;2022-08-01T00:54:17;14.18;;;11.50;;
69856;SDS011;57147;53.582;10.112;2022-08-01T00:59:17;16.67;;;11.05;;
69856;SDS011;57147;53.582;10.112;2022-08-01T01:04:21;13.90;;;11.15;;
69856;SDS011;57147;53.582;10.112;2022-08-01T01:09:30;13.90;;;11.48;;
69856;SDS011;57147;53.582;10.112;2022-08-01T01:14:38;12.40;;;9.52;;
69856;SDS011;57147;53.582;10.112;2022-08-01T01:19:47;12.68;;;9.38;;
69856;SDS011;57147;53.582;10.112;2022-08-01T01:30:23;12.68;;;9.13;;
69856;SDS011;57147;53.582;10.112;2022-08-01T01:35:28;11.20;;;9.07;;
69856;SDS011;57147;53.582;10.112;2022-08-01T01:40:32;10.45;;;7.63;;
69856;SDS011;57147;53.582;10.112;2022-08-01T01:45:36;11.73;;;9.63;;
69856;SDS011;57147;53.582;10.112;2022-08-01T01:50:37;12.43;;;8.65;;
69856;SDS011;57147;53.582;10.112;2022-08-01T01:55:39;12.82;;;10.50;;
69856;SDS011;57147;53.582;10.112;2022-08-01T02:00:44;11.88;;;8.88;;
69856;SDS011;57147;53.582;10.112;2022-08-01T02:05:46;13.85;;;10.30;;
69856;SDS011;57147;53.582;10.112;2022-08-01T02:10:48;13.20;;;10.02;;
69856;SDS011;57147;53.582;10.112;2022-08-01T02:15:54;13.20;;;9.75;;
69856;SDS011;57147;53.582;10.112;2022-08-01T02:20:55;13.27;;;9.65;;
69856;SDS011;57147;53.582;10.112;2022-08-01T02:25:57;14.30;;;9.55;;
69856;SDS011;57147;53.582;10.112;2022-08-01T02:31:04;10.90;;;9.73;;
69856;SDS011;57147;53.582;10.112;2022-08-01T02:36:06;13.40;;;10.50;;
69856;SDS011;57147;53.582;10.112;2022-08-01T02:41:08;11.00;;;9.23;;
69856;SDS011;57147;53.582;10.112;2022-08-01T02:46:15;10.65;;;8.43;;
69856;SDS011;57147;53.582;10.112;2022-08-01T02:51:19;10.88;;;7.80;;
69856;SDS011;57147;53.582;10.112;2022-08-01T02:56:23;10.77;;;8.18;;
69856;SDS011;57147;53.582;10.112;2022-08-01T03:01:27;9.02;;;6.07;;
69856;SDS011;57147;53.582;10.112;2022-08-01T03:06:28;9.70;;;7.78;;
69856;SDS011;57147;53.582;10.112;2022-08-01T03:11:30;9.77;;;7.38;;
69856;SDS011;57147;53.582;10.112;2022-08-01T03:16:35;10.98;;;7.60;;
69856;SDS011;57147;53.582;10.112;2022-08-01T03:21:40;11.68;;;7.47;;
69856;SDS011;57147;53.582;10.112;2022-08-01T03:26:42;11.00;;;7.32;;
69856;SDS011;57147;53.582;10.112;2022-08-01T03:31:47;9.73;;;7.30;;
69856;SDS011;57147;53.582;10.112;2022-08-01T03:41:52;11.73;;;8.13;;
69856;SDS011;57147;53.582;10.112;2022-08-01T03:46:59;9.57;;;7.78;;
69856;SDS011;57147;53.582;10.112;2022-08-01T03:52:02;7.53;;;6.72;;
69856;SDS011;57147;53.582;10.112;2022-08-01T03:57:06;8.05;;;6.40;;
69856;SDS011;57147;53.582;10.112;2022-08-01T04:02:11;8.25;;;5.85;;
69856;SDS011;57147;53.582;10.112;2022-08-01T04:07:22;6.20;;;3.97;;
69856;SDS011;57147;53.582;10.112;2022-08-01T04:12:24;8.23;;;5.20;;
69856;SDS011;57147;53.582;10.112;2022-08-01T04:17:27;5.53;;;4.72;;
69856;SDS011;57147;53.582;10.112;2022-08-01T04:22:28;6.85;;;4.93;;
69856;SDS011;57147;53.582;10.112;2022-08-01T04:27:29;7.18;;;4.20;;
69856;SDS011;57147;53.582;10.112;2022-08-01T04:32:35;7.78;;;5.38;;
69856;SDS011;57147;53.582;10.112;2022-08-01T04:37:39;5.38;;;4.35;;
69856;SDS011;57147;53.582;10.112;2022-08-01T04:42:42;6.32;;;4.65;;
69856;SDS011;57147;53.582;10.112;2022-08-01T04:47:46;7.15;;;4.53;;
69856;SDS011;57147;53.582;10.112;2022-08-01T04:52:47;6.72;;;4.85;;
69856;SDS011;57147;53.582;10.112;2022-08-01T04:57:47;7.43;;;3.60;;
69856;SDS011;57147;53.582;10.112;2022-08-01T05:02:51;7.60;;;4.75;;
69856;SDS011;57147;53.582;10.112;2022-08-01T05:07:51;6.40;;;5.25;;
69856;SDS011;57147;53.582;10.112;2022-08-01T05:12:52;6.10;;;5.30;;
69856;SDS011;57147;53.582;10.112;2022-08-01T05:17:55;5.05;;;4.32;;
69856;SDS011;57147;53.582;10.112;2022-08-01T05:22:56;4.35;;;3.45;;
69856;SDS011;57147;53.582;10.112;2022-08-01T05:27:56;3.38;;;1.98;;
69856;SDS011;57147;53.582;10.112;2022-08-01T05:33:00;3.25;;;2.47;;
69856;SDS011;57147;53.582;10.112;2022-08-01T05:38:00;3.15;;;2.05;;
69856;SDS011;57147;53.582;10.112;2022-08-01T05:43:01;2.70;;;2.50;;
69856;SDS011;57147;53.582;10.112;2022-08-01T05:48:04;3.63;;;2.20;;
69856;SDS011;57147;53.582;10.112;2022-08-01T05:53:05;3.53;;;2.95;;
69856;SDS011;57147;53.582;10.112;2022-08-01T05:58:06;3.58;;;2.60;;
69856;SDS011;57147;53.582;10.112;2022-08-01T06:03:09;4.90;;;2.50;;
69856;SDS011;57147;53.582;10.112;2022-08-01T06:08:10;4.32;;;1.85;;
69856;SDS011;57147;53.582;10.112;2022-08-01T06:13:10;4.43;;;1.27;;
69856;SDS011;57147;53.582;10.112;2022-08-01T06:18:13;4.70;;;2.33;;
69856;SDS011;57147;53.582;10.112;2022-08-01T06:23:14;7.65;;;2.40;;
69856;SDS011;57147;53.582;10.112;2022-08-01T06:28:15;5.70;;;2.50;;
69856;SDS011;57147;53.582;10.112;2022-08-01T06:33:18;6.28;;;2.30;;
69856;SDS011;57147;53.582;10.112;2022-08-01T06:38:19;4.47;;;2.35;;
69856;SDS011;57147;53.582;10.112;2022-08-01T06:43:20;5.68;;;2.03;;
69856;SDS011;57147;53.582;10.112;2022-08-01T06:48:23;7.28;;;2.10;;
69856;SDS011;57147;53.582;10.112;2022-08-01T06:53:24;6.90;;;2.53;;
69856;SDS011;57147;53.582;10.112;2022-08-01T06:58:24;8.45;;;3.30;;
69856;SDS011;57147;53.582;10.112;2022-08-01T07:03:27;7.47;;;3.28;;
69856;SDS011;57147;53.582;10.112;2022-08-01T07:08:28;7.88;;;4.03;;
69856;SDS011;57147;53.582;10.112;2022-08-01T07:13:29;11.15;;;5.32;;
69856;SDS011;57147;53.582;10.112;2022-08-01T07:18:32;8.65;;;5.25;;
69856;SDS011;57147;53.582;10.112;2022-08-01T07:23:33;12.95;;;5.97;;
69856;SDS011;57147;53.582;10.112;2022-08-01T07:28:33;12.55;;;5.78;;
69856;SDS011;57147;53.582;10.112;2022-08-01T07:33:37;12.32;;;5.72;;
69856;SDS011;57147;53.582;10.112;2022-08-01T07:38:37;14.13;;;5.15;;
69856;SDS011;57147;53.582;10.112;2022-08-01T07:43:38;10.35;;;5.22;;
69856;SDS011;57147;53.582;10.112;2022-08-01T07:48:41;13.93;;;4.25;;
69856;SDS011;57147;53.582;10.112;2022-08-01T07:53:41;9.30;;;3.58;;
69856;SDS011;57147;53.582;10.112;2022-08-01T07:58:42;8.70;;;3.95;;
69856;SDS011;57147;53.582;10.112;2022-08-01T08:03:45;11.07;;;4.05;;
69856;SDS011;57147;53.582;10.112;2022-08-01T08:08:46;11.48;;;4.03;;
69856;SDS011;57147;53.582;10.112;2022-08-01T08:13:47;12.05;;;4.13;;
69856;SDS011;57147;53.582;10.112;2022-08-01T08:18:50;8.38;;;3.63;;
69856;SDS011;57147;53.582;10.112;2022-08-01T08:23:51;7.00;;;2.10;;
69856;SDS011;57147;53.582;10.112;2022-08-01T08:28:51;10.50;;;2.65;;
69856;SDS011;57147;53.582;10.112;2022-08-01T08:33:54;8.27;;;1.70;;
69856;SDS011;57147;53.582;10.112;2022-08-01T08:38:55;7.45;;;2.75;;
69856;SDS011;57147;53.582;10.112;2022-08-01T08:43:56;11.85;;;3.25;;
69856;SDS011;57147;53.582;10.112;2022-08-01T08:49:00;7.32;;;2.95;;
69856;SDS011;57147;53.582;10.112;2022-08-01T08:54:01;8.75;;;2.47;;
69856;SDS011;57147;53.582;10.112;2022-08-01T08:59:04;8.02;;;2.25;;
69856;SDS011;57147;53.582;10.112;2022-08-01T09:04:07;6.82;;;2.55;;
69856;SDS011;57147;53.582;10.112;2022-08-01T09:09:09;8.30;;;2.92;;
69856;SDS011;57147;53.582;10.112;2022-08-01T09:14:11;5.60;;;2.75;;
69856;SDS011;57147;53.582;10.112;2022-08-01T09:19:16;6.07;;;2.10;;
69856;SDS011;57147;53.582;10.112;2022-08-01T09:24:18;6.47;;;3.05;;
69856;SDS011;57147;53.582;10.112;2022-08-01T09:29:20;8.20;;;2.25;;
69856;SDS011;57147;53.582;10.112;2022-08-01T09:34:28;7.82;;;2.92;;
69856;SDS011;57147;53.582;10.112;2022-08-01T09:39:30;7.03;;;2.17;;
69856;SDS011;57147;53.582;10.112;2022-08-01T09:44:41;6.85;;;2.33;;
69856;SDS011;57147;53.582;10.112;2022-08-01T09:49:52;9.60;;;2.60;;
69856;SDS011;57147;53.582;10.112;2022-08-01T09:54:55;7.57;;;1.92;;
69856;SDS011;57147;53.582;10.112;2022-08-01T09:59:58;9.00;;;2.15;;
69856;SDS011;57147;53.582;10.112;2022-08-01T10:05:03;8.10;;;2.13;;
69856;SDS011;57147;53.582;10.112;2022-08-01T10:10:09;8.60;;;1.80;;
69856;SDS011;57147;53.582;10.112;2022-08-01T10:15:11;7.88;;;1.88;;
69856;SDS011;57147;53.582;10.112;2022-08-01T10:20:17;8.38;;;1.75;;
69856;SDS011;57147;53.582;10.112;2022-08-01T10:25:19;7.38;;;1.10;;
69856;SDS011;57147;53.582;10.112;2022-08-01T10:30:21;6.60;;;2.28;;
69856;SDS011;57147;53.582;10.112;2022-08-01T10:35:24;5.30;;;1.20;;
69856;SDS011;57147;53.582;10.112;2022-08-01T10:40:25;10.60;;;2.30;;
69856;SDS011;57147;53.582;10.112;2022-08-01T10:45:26;8.35;;;2.63;;
69856;SDS011;57147;53.582;10.112;2022-08-01T10:50:32;9.82;;;3.08;;
69856;SDS011;57147;53.582;10.112;2022-08-01T10:55:44;7.70;;;2.25;;
69856;SDS011;57147;53.582;10.112;2022-08-01T11:06:23;5.70;;;1.63;;
69856;SDS011;57147;53.582;10.112;2022-08-01T11:11:25;5.05;;;1.50;;
69856;SDS011;57147;53.582;10.112;2022-08-01T11:16:26;7.00;;;1.52;;
69856;SDS011;57147;53.582;10.112;2022-08-01T11:32:23;5.88;;;1.45;;
69856;SDS011;57147;53.582;10.112;2022-08-01T11:37:24;5.13;;;1.15;;
69856;SDS011;57147;53.582;10.112;2022-08-01T11:42:28;4.15;;;1.10;;
69856;SDS011;57147;53.582;10.112;2022-08-01T11:47:42;6.28;;;1.40;;
69856;SDS011;57147;53.582;10.112;2022-08-01T11:52:43;5.35;;;1.38;;
69856;SDS011;57147;53.582;10.112;2022-08-01T11:57:47;8.27;;;1.52;;
69856;SDS011;57147;53.582;10.112;2022-08-01T12:02:56;6.28;;;1.98;;
69856;SDS011;57147;53.582;10.112;2022-08-01T12:07:58;5.43;;;1.42;;
69856;SDS011;57147;53.582;10.112;2022-08-01T12:13:03;7.40;;;1.50;;
69856;SDS011;57147;53.582;10.112;2022-08-01T12:18:06;7.97;;;1.50;;
69856;SDS011;57147;53.582;10.112;2022-08-01T12:23:07;5.45;;;1.08;;
69856;SDS011;57147;53.582;10.112;2022-08-01T12:28:11;6.85;;;1.40;;
69856;SDS011;57147;53.582;10.112;2022-08-01T12:33:16;4.20;;;0.85;;
69856;SDS011;57147;53.582;10.112;2022-08-01T12:38:18;3.88;;;0.65;;
69856;SDS011;57147;53.582;10.112;2022-08-01T12:43:22;3.03;;;0.77;;
69856;SDS011;57147;53.582;10.112;2022-08-01T12:48:23;3.03;;;0.95;;
69856;SDS011;57147;53.582;10.112;2022-08-01T12:53:24;4.55;;;0.85;;
69856;SDS011;57147;53.582;10.112;2022-08-01T12:58:32;4.82;;;0.80;;
69856;SDS011;57147;53.582;10.112;2022-08-01T13:03:33;4.18;;;0.95;;
69856;SDS011;57147;53.582;10.112;2022-08-01T13:08:34;5.68;;;0.95;;
69856;SDS011;57147;53.582;10.112;2022-08-01T13:13:40;4.90;;;0.88;;
69856;SDS011;57147;53.582;10.112;2022-08-01T13:18:42;3.90;;;1.05;;
69856;SDS011;57147;53.582;10.112;2022-08-01T13:24:01;3.88;;;1.20;;
69856;SDS011;57147;53.582;10.112;2022-08-01T13:29:06;2.90;;;0.57;;
69856;SDS011;57147;53.582;10.112;2022-08-01T13:34:08;5.18;;;1.38;;
69856;SDS011;57147;53.582;10.112;2022-08-01T13:39:09;4.32;;;0.90;;
69856;SDS011;57147;53.582;10.112;2022-08-01T13:44:12;5.82;;;0.98;;
69856;SDS011;57147;53.582;10.112;2022-08-01T13:49:13;7.25;;;0.55;;
69856;SDS011;57147;53.582;10.112;2022-08-01T13:54:14;4.63;;;1.20;;
69856;SDS011;57147;53.582;10.112;2022-08-01T13:59:17;3.30;;;0.80;;
69856;SDS011;57147;53.582;10.112;2022-08-01T14:04:18;2.53;;;0.35;;
69856;SDS011;57147;53.582;10.112;2022-08-01T14:09:18;4.32;;;0.82;;
69856;SDS011;57147;53.582;10.112;2022-08-01T14:14:22;5.47;;;1.20;;
69856;SDS011;57147;53.582;10.112;2022-08-01T14:19:22;4.28;;;1.15;;
69856;SDS011;57147;53.582;10.112;2022-08-01T14:24:23;4.32;;;0.98;;
69856;SDS011;57147;53.582;10.112;2022-08-01T14:29:26;5.38;;;1.17;;
69856;SDS011;57147;53.582;10.112;2022-08-01T14:34:27;4.82;;;1.13;;
69856;SDS011;57147;53.582;10.112;2022-08-01T14:39:27;3.88;;;0.95;;
69856;SDS011;57147;53.582;10.112;2022-08-01T14:44:31;5.60;;;0.80;;
69856;SDS011;57147;53.582;10.112;2022-08-01T14:49:33;3.83;;;1.10;;
69856;SDS011;57147;53.582;10.112;2022-08-01T14:54:34;3.33;;;0.93;;
69856;SDS011;57147;53.582;10.112;2022-08-01T14:59:37;4.65;;;0.65;;
69856;SDS011;57147;53.582;10.112;2022-08-01T15:04:37;6.10;;;1.52;;
69856;SDS011;57147;53.582;10.112;2022-08-01T15:09:38;4.03;;;1.23;;
69856;SDS011;57147;53.582;10.112;2022-08-01T15:14:42;6.22;;;0.98;;
69856;SDS011;57147;53.582;10.112;2022-08-01T15:19:42;6.35;;;1.90;;
69856;SDS011;57147;53.582;10.112;2022-08-01T15:24:43;4.57;;;1.40;;
69856;SDS011;57147;53.582;10.112;2022-08-01T15:29:46;4.80;;;1.35;;
69856;SDS011;57147;53.582;10.112;2022-08-01T15:34:48;7.13;;;1.60;;
69856;SDS011;57147;53.582;10.112;2022-08-01T15:39:48;5.35;;;1.33;;
69856;SDS011;57147;53.582;10.112;2022-08-01T15:44:52;4.85;;;0.45;;
69856;SDS011;57147;53.582;10.112;2022-08-01T15:49:52;5.38;;;1.20;;
69856;SDS011;57147;53.582;10.112;2022-08-01T15:54:53;6.28;;;1.35;;
69856;SDS011;57147;53.582;10.112;2022-08-01T15:59:56;7.25;;;1.42;;
69856;SDS011;57147;53.582;10.112;2022-08-01T16:04:57;5.25;;;1.48;;
69856;SDS011;57147;53.582;10.112;2022-08-01T16:09:57;6.32;;;1.52;;
69856;SDS011;57147;53.582;10.112;2022-08-01T16:15:01;5.63;;;1.48;;
69856;SDS011;57147;53.582;10.112;2022-08-01T16:20:02;7.03;;;1.98;;
69856;SDS011;57147;53.582;10.112;2022-08-01T16:25:04;5.40;;;1.50;;
69856;SDS011;57147;53.582;10.112;2022-08-01T16:30:08;6.70;;;1.35;;
69856;SDS011;57147;53.582;10.112;2022-08-01T16:35:09;5.28;;;0.63;;
69856;SDS011;57147;53.582;10.112;2022-08-01T16:40:10;5.20;;;1.90;;
69856;SDS011;57147;53.582;10.112;2022-08-01T16:45:14;6.65;;;1.52;;
69856;SDS011;57147;53.582;10.112;2022-08-01T16:50:15;4.72;;;0.80;;
69856;SDS011;57147;53.582;10.112;2022-08-01T16:55:15;7.75;;;1.50;;
69856;SDS011;57147;53.582;10.112;2022-08-01T17:00:19;8.45;;;1.30;;
69856;SDS011;57147;53.582;10.112;2022-08-01T17:05:19;6.53;;;1.55;;
69856;SDS011;57147;53.582;10.112;2022-08-01T17:10:20;7.35;;;1.30;;
69856;SDS011;57147;53.582;10.112;2022-08-01T17:15:23;7.50;;;0.93;;
69856;SDS011;57147;53.582;10.112;2022-08-01T17:20:24;6.80;;;1.35;;
69856;SDS011;57147;53.582;10.112;2022-08-01T17:25:25;9.60;;;1.67;;
69856;SDS011;57147;53.582;10.112;2022-08-01T17:30:28;4.80;;;1.05;;
69856;SDS011;57147;53.582;10.112;2022-08-01T17:35:29;5.93;;;1.45;;
69856;SDS011;57147;53.582;10.112;2022-08-01T17:40:29;8.77;;;1.85;;
69856;SDS011;57147;53.582;10.112;2022-08-01T17:45:33;4.70;;;0.98;;
69856;SDS011;57147;53.582;10.112;2022-08-01T17:50:33;4.80;;;1.40;;
69856;SDS011;57147;53.582;10.112;2022-08-01T17:55:34;5.68;;;0.88;;
69856;SDS011;57147;53.582;10.112;2022-08-01T18:00:37;7.15;;;0.98;;
69856;SDS011;57147;53.582;10.112;2022-08-01T18:05:38;5.38;;;0.73;;
69856;SDS011;57147;53.582;10.112;2022-08-01T18:10:38;4.68;;;0.82;;
69856;SDS011;57147;53.582;10.112;2022-08-01T18:15:42;7.85;;;1.15;;
69856;SDS011;57147;53.582;10.112;2022-08-01T18:20:42;5.13;;;1.02;;
69856;SDS011;57147;53.582;10.112;2022-08-01T18:25:43;7.68;;;1.00;;
69856;SDS011;57147;53.582;10.112;2022-08-01T18:30:46;5.50;;;1.05;;
69856;SDS011;57147;53.582;10.112;2022-08-01T18:35:47;8.65;;;0.52;;
69856;SDS011;57147;53.582;10.112;2022-08-01T18:40:47;4.55;;;0.80;;
69856;SDS011;57147;53.582;10.112;2022-08-01T18:45:51;8.95;;;1.48;;
69856;SDS011;57147;53.582;10.112;2022-08-01T18:50:51;7.53;;;0.93;;
69856;SDS011;57147;53.582;10.112;2022-08-01T18:55:52;6.55;;;1.23;;
69856;SDS011;57147;53.582;10.112;2022-08-01T19:00:55;7.88;;;1.77;;
69856;SDS011;57147;53.582;10.112;2022-08-01T19:05:56;8.57;;;1.67;;
69856;SDS011;57147;53.582;10.112;2022-08-01T19:10:57;7.22;;;1.90;;
69856;SDS011;57147;53.582;10.112;2022-08-01T19:16:00;6.13;;;1.42;;
69856;SDS011;57147;53.582;10.112;2022-08-01T19:21:01;7.10;;;2.55;;
69856;SDS011;57147;53.582;10.112;2022-08-01T19:26:02;5.60;;;2.13;;
69856;SDS011;57147;53.582;10.112;2022-08-01T19:31:06;7.75;;;2.03;;
69856;SDS011;57147;53.582;10.112;2022-08-01T19:36:11;9.02;;;1.52;;
69856;SDS011;57147;53.582;10.112;2022-08-01T19:41:14;7.20;;;2.03;;
69856;SDS011;57147;53.582;10.112;2022-08-01T19:46:18;6.07;;;1.92;;
69856;SDS011;57147;53.582;10.112;2022-08-01T19:51:20;5.68;;;1.42;;
69856;SDS011;57147;53.582;10.112;2022-08-01T19:56:21;6.20;;;2.17;;
69856;SDS011;57147;53.582;10.112;2022-08-01T20:01:27;8.45;;;3.13;;
69856;SDS011;57147;53.582;10.112;2022-08-01T20:06:28;9.60;;;2.63;;
69856;SDS011;57147;53.582;10.112;2022-08-01T20:11:29;8.00;;;2.00;;
69856;SDS011;57147;53.582;10.112;2022-08-01T20:16:33;6.57;;;1.73;;
69856;SDS011;57147;53.582;10.112;2022-08-01T20:21:33;8.05;;;1.55;;
69856;SDS011;57147;53.582;10.112;2022-08-01T20:26:34;5.88;;;2.60;;
69856;SDS011;57147;53.582;10.112;2022-08-01T20:31:39;7.35;;;2.88;;
69856;SDS011;57147;53.582;10.112;2022-08-01T20:36:40;6.65;;;2.05;;
69856;SDS011;57147;53.582;10.112;2022-08-01T20:41:42;7.68;;;1.45;;
69856;SDS011;57147;53.582;10.112;2022-08-01T20:46:46;7.85;;;1.65;;
69856;SDS011;57147;53.582;10.112;2022-08-01T20:51:47;4.00;;;1.27;;
69856;SDS011;57147;53.582;10.112;2022-08-01T20:56:50;6.72;;;1.90;;
69856;SDS011;57147;53.582;10.112;2022-08-01T21:02:00;7.78;;;1.95;;
69856;SDS011;57147;53.582;10.112;2022-08-01T21:12:13;9.48;;;1.67;;
69856;SDS011;57147;53.582;10.112;2022-08-01T21:17:24;6.78;;;1.77;;
69856;SDS011;57147;53.582;10.112;2022-08-01T21:22:32;8.57;;;1.17;;
69856;SDS011;57147;53.582;10.112;2022-08-01T21:27:36;3.42;;;1.27;;
69856;SDS011;57147;53.582;10.112;2022-08-01T21:32:41;5.05;;;1.50;;
69856;SDS011;57147;53.582;10.112;2022-08-01T21:37:42;6.43;;;1.63;;
69856;SDS011;57147;53.582;10.112;2022-08-01T21:42:47;7.22;;;1.85;;
69856;SDS011;57147;53.582;10.112;2022-08-01T21:47:53;6.72;;;2.15;;
69856;SDS011;57147;53.582;10.112;2022-08-01T21:52:58;7.78;;;1.30;;
69856;SDS011;57147;53.582;10.112;2022-08-01T21:58:11;6.95;;;1.58;;
69856;SDS011;57147;53.582;10.112;2022-08-01T22:03:22;6.55;;;1.42;;
69856;SDS011;57147;53.582;10.112;2022-08-01T22:08:26;4.57;;;2.30;;
69856;SDS011;57147;53.582;10.112;2022-08-01T22:13:31;8.60;;;2.28;;
69856;SDS011;57147;53.582;10.112;2022-08-01T22:18:35;5.70;;;1.95;;
69856;SDS011;57147;53.582;10.112;2022-08-01T22:23:37;6.78;;;1.65;;
69856;SDS011;57147;53.582;10.112;2022-08-01T22:28:38;6.47;;;2.45;;
69856;SDS011;57147;53.582;10.112;2022-08-01T22:33:42;7.85;;;3.00;;
69856;SDS011;57147;53.582;10.112;2022-08-01T22:38:44;7.10;;;1.50;;
69856;SDS011;57147;53.582;10.112;2022-08-01T22:43:48;2.90;;;1.30;;
69856;SDS011;57147;53.582;10.112;2022-08-01T22:48:58;7.35;;;1.30;;
69856;SDS011;57147;53.582;10.112;2022-08-01T22:54:02;3.90;;;1.23;;
69856;SDS011;57147;53.582;10.112;2022-08-01T22:59:07;5.70;;;2.05;;
69856;SDS011;57147;53.582;10.112;2022-08-01T23:04:14;7.13;;;0.75;;
69856;SDS011;57147;53.582;10.112;2022-08-01T23:09:20;5.38;;;1.73;;
69856;SDS011;57147;53.582;10.112;2022-08-01T23:14:21;8.27;;;1.92;;
69856;SDS011;57147;53.582;10.112;2022-08-01T23:19:25;7.50;;;1.70;;
69856;SDS011;57147;53.582;10.112;2022-08-01T23:24:27;5.28;;;2.00;;
69856;SDS011;57147;53.582;10.112;2022-08-01T23:29:28;8.98;;;2.47;;
69856;SDS011;57147;53.582;10.112;2022-08-01T23:34:31;5.20;;;2.00;;
69856;SDS011;57147;53.582;10.112;2022-08-01T23:39:32;6.50;;;2.40;;
69856;SDS011;57147;53.582;10.112;2022-08-01T23:44:33;6.30;;;2.78;;
69856;SDS011;57147;53.582;10.112;2022-08-01T23:49:36;5.38;;;1.77;;
69856;SDS011;57147;53.582;10.112;2022-08-01T23:54:37;9.27;;;2.75;;
69856;SDS011;57147;53.582;10.112;2022-08-01T23:59:38;6.97;;;4.03;;
